Time;durP1;ratioP1;P1;durP2;ratioP2;P2;SDS_P1;SDS_P2;PMS_P1;PMS_P2;Temp;Humidity;BMP_temperature;BMP_pressure;BME280_temperature;BME280_humidity;BME280_pressure;Samples;Min_cycle;Max_cycle;Signal;HPM_P1;HPM_P2
2022/08/11 00:02:33;;;;;;;3.38;1.58;;;;;;;25.13;37.26;102110.41;5043138;28;20089;-64
2022/08/11 00:05:07;;;;;;;3.67;1.80;;;;;;;25.10;37.16;102116.50;5036814;28;20068;-64
2022/08/11 00:07:42;;;;;;;3.00;1.77;;;;;;;25.10;37.02;102109.06;5043917;28;20561;-63
2022/08/11 00:10:11;;;;;;;3.20;1.63;;;;;;;25.10;37.02;102111.00;5044570;28;20080;-64
2022/08/11 00:12:40;;;;;;;3.17;1.73;;;;;;;25.08;37.23;102108.53;5036377;28;20050;-64
2022/08/11 00:15:11;;;;;;;3.38;1.73;;;;;;;25.06;37.31;102109.91;5041688;28;20052;-64
2022/08/11 00:17:39;;;;;;;1.92;1.50;;;;;;;25.05;37.08;102106.34;5041251;28;20072;-64
2022/08/11 00:20:10;;;;;;;3.60;2.05;;;;;;;25.04;37.14;102106.63;5040176;28;20045;-64
2022/08/11 00:22:44;;;;;;;;;;;;;;;25.03;37.21;102105.00;5039694;28;20053;-64
2022/08/11 00:25:14;;;;;;;2.63;1.63;;;;;;;25.02;37.48;102106.94;5043055;28;19921;-64
2022/08/11 00:27:44;;;;;;;2.08;1.80;;;;;;;24.92;37.12;102098.72;5040994;28;20041;-64
2022/08/11 00:30:14;;;;;;;5.75;1.83;;;;;;;24.96;37.35;102100.66;5030470;28;20101;-64
2022/08/11 00:32:44;;;;;;;1.88;1.50;;;;;;;24.95;37.38;102101.72;5045366;28;20045;-64
2022/08/11 00:35:16;;;;;;;1.67;1.40;;;;;;;24.95;37.47;102100.91;5037344;28;20069;-65
2022/08/11 00:38:06;;;;;;;5.15;1.80;;;;;;;24.91;37.30;102103.41;5033767;28;20051;-64
2022/08/11 00:40:41;;;;;;;2.65;1.70;;;;;;;24.89;37.19;102102.88;5035088;28;20479;-64
2022/08/11 00:43:18;;;;;;;5.25;1.83;;;;;;;24.86;37.28;102099.88;5044840;28;20060;-64
2022/08/11 00:46:10;;;;;;;2.75;1.70;;;;;;;24.85;37.57;102101.81;5043123;28;20633;-64
2022/08/11 00:48:48;;;;;;;2.38;1.42;;;;;;;24.78;37.42;102095.00;5041865;28;20050;-64
2022/08/11 00:51:30;;;;;;;2.67;1.40;;;;;;;24.81;37.63;102106.25;5038930;28;20080;-64
2022/08/11 00:54:43;;;;;;;5.47;1.77;;;;;;;24.79;37.40;102099.38;5032922;28;20050;-64
2022/08/11 00:57:35;;;;;;;3.35;1.75;;;;;;;24.77;37.80;102104.34;5042475;28;20050;-64
2022/08/11 01:00:13;;;;;;;2.22;1.70;;;;;;;24.75;37.93;102101.06;5017489;28;20065;-64
2022/08/11 01:02:56;;;;;;;2.75;1.75;;;;;;;24.70;37.66;102098.34;5033320;28;20053;-64
2022/08/11 01:05:41;;;;;;;2.72;1.70;;;;;;;24.70;37.58;102096.44;5032475;28;20046;-64
2022/08/11 01:08:32;;;;;;;2.05;1.42;;;;;;;24.67;37.52;102099.75;5032420;28;20126;-64
2022/08/11 01:11:33;;;;;;;3.47;2.25;;;;;;;24.66;38.06;102104.44;5037261;28;20077;-64
2022/08/11 01:14:33;;;;;;;2.53;1.52;;;;;;;24.63;37.81;102105.00;5039071;28;20053;-64
2022/08/11 01:17:55;;;;;;;3.60;1.60;;;;;;;24.60;37.62;102100.06;5041315;28;20380;-64
2022/08/11 01:21:07;;;;;;;3.97;1.58;;;;;;;24.58;37.71;102095.97;5031337;28;20073;-64
2022/08/11 01:24:22;;;;;;;4.18;1.75;;;;;;;24.56;37.78;102092.69;5038245;28;20081;-64
2022/08/11 01:27:13;;;;;;;2.15;1.40;;;;;;;24.54;38.16;102101.22;5036002;28;20045;-64
2022/08/11 01:30:35;;;;;;;2.40;1.73;;;;;;;24.52;37.83;102108.94;5032852;28;20069;-64
2022/08/11 01:33:55;;;;;;;3.13;1.90;;;;;;;24.50;38.04;102104.81;5034148;28;20080;-64
2022/08/11 01:36:57;;;;;;;3.03;1.77;;;;;;;24.47;38.10;102106.22;5040473;28;20072;-64
2022/08/11 01:40:08;;;;;;;8.05;1.60;;;;;;;24.46;37.68;102106.50;5030992;28;20120;-64
2022/08/11 01:46:16;;;;;;;2.35;1.63;;;;;;;24.42;38.32;102106.25;5031671;28;20050;-64
2022/08/11 01:48:53;;;;;;;4.82;2.35;;;;;;;24.40;37.92;102111.19;5043812;28;20064;-64
2022/08/11 01:51:31;;;;;;;3.95;1.85;;;;;;;24.39;38.21;102116.97;5043220;28;20132;-64
2022/08/11 01:54:04;;;;;;;6.72;1.88;;;;;;;24.37;38.16;102114.50;5042150;28;20053;-64
2022/08/11 01:56:44;;;;;;;2.35;1.85;;;;;;;24.35;38.25;102111.22;5043961;28;20045;-64
2022/08/11 01:59:17;;;;;;;2.67;1.92;;;;;;;24.36;38.15;102114.81;5040721;28;20057;-64
2022/08/11 02:02:44;;;;;;;2.67;1.80;;;;;;;24.34;38.00;102117.84;5039957;28;20045;-64
2022/08/11 02:05:36;;;;;;;4.35;1.40;;;;;;;24.32;38.36;102120.88;5040617;28;20083;-64
2022/08/11 02:08:15;;;;;;;4.53;1.80;;;;;;;24.30;38.43;102116.75;5040753;28;20567;-64
2022/08/11 02:13:47;;;;;;;3.30;1.80;;;;;;;24.27;38.35;102114.56;5032675;28;20491;-65
2022/08/11 02:16:33;;;;;;;3.85;1.60;;;;;;;24.25;38.05;102111.28;5037047;28;20092;-64
2022/08/11 02:24:58;;;;;;;2.35;1.73;;;;;;;24.20;38.35;102112.13;5031655;28;20060;-64
2022/08/11 02:27:36;;;;;;;2.60;1.52;;;;;;;24.18;38.33;102117.09;5034632;28;20053;-64
2022/08/11 02:30:10;;;;;;;4.05;2.03;;;;;;;24.17;38.35;102109.13;5038370;28;20045;-64
2022/08/11 02:35:44;;;;;;;3.58;1.90;;;;;;;24.13;38.37;102105.31;5040806;28;20084;-64
2022/08/11 02:38:23;;;;;;;2.90;1.83;;;;;;;24.08;38.58;102100.66;5041680;28;20069;-64
2022/08/11 02:42:21;;;;;;;2.20;1.60;;;;;;;24.08;38.31;102102.59;5038834;28;20053;-64
2022/08/11 02:44:10;;;;;;;3.30;2.03;;;;;;;24.06;38.56;102099.28;5040667;28;20057;-64
2022/08/11 02:46:50;;;;;;;2.58;1.77;;;;;;;24.02;38.81;102099.03;5038571;28;20073;-64
2022/08/11 02:49:53;;;;;;;2.92;1.73;;;;;;;24.01;38.33;102092.72;5040076;28;20447;-64
2022/08/11 02:52:41;;;;;;;4.55;2.00;;;;;;;23.97;38.47;102096.31;5041047;28;20068;-64
2022/08/11 02:55:22;;;;;;;2.30;1.90;;;;;;;23.96;38.89;102097.41;5038878;28;20076;-64
2022/08/11 02:58:14;;;;;;;2.50;1.67;;;;;;;23.94;38.78;102102.38;5034338;28;20049;-64
2022/08/11 03:00:50;;;;;;;3.72;1.92;;;;;;;23.91;38.59;102103.75;5037116;28;20133;-64
2022/08/11 03:03:25;;;;;;;2.75;1.88;;;;;;;23.89;38.99;102096.91;5041865;28;20403;-64
2022/08/11 03:06:04;;;;;;;5.57;2.00;;;;;;;23.87;38.90;102105.41;5037640;28;20518;-64
2022/08/11 03:08:50;;;;;;;4.30;1.70;;;;;;;23.85;38.85;102101.31;5042001;28;20050;-64
2022/08/11 03:17:18;;;;;;;4.35;2.05;;;;;;;23.78;38.77;102090.63;5036719;28;20053;-64
2022/08/11 03:20:00;;;;;;;3.38;1.80;;;;;;;23.77;39.24;102099.16;5040448;28;20104;-64
2022/08/11 03:22:37;;;;;;;4.43;1.90;;;;;;;23.75;39.22;102101.34;5041962;28;20518;-64
2022/08/11 03:25:12;;;;;;;4.93;2.42;;;;;;;23.72;39.19;102096.41;5033625;28;20060;-64
2022/08/11 03:27:53;;;;;;;4.13;1.92;;;;;;;23.69;38.83;102097.78;5037229;28;20049;-64
2022/08/11 03:30:29;;;;;;;2.90;1.98;;;;;;;23.67;38.90;102097.25;5037325;28;20077;-65
2022/08/11 03:36:13;;;;;;;2.47;1.65;;;;;;;23.62;39.45;102100.00;5042056;28;20045;-65
2022/08/11 03:39:05;;;;;;;3.80;1.63;;;;;;;23.58;39.38;102102.50;5044594;28;20080;-64
2022/08/11 03:41:43;;;;;;;2.28;1.55;;;;;;;23.58;39.21;102097.00;5042100;28;20125;-64
2022/08/11 03:45:06;;;;;;;3.72;1.95;;;;;;;23.55;39.48;102097.56;5045173;28;20053;-64
2022/08/11 03:47:52;;;;;;;4.63;2.10;;;;;;;23.54;39.48;102098.66;4997434;28;20082;-64
2022/08/11 03:50:32;;;;;;;5.93;2.20;;;;;;;23.54;39.48;102095.91;4994563;28;20046;-64
2022/08/11 03:53:15;;;;;;;3.67;1.83;;;;;;;23.52;39.59;102106.31;4994183;28;20488;-64
2022/08/11 03:56:12;;;;;;;4.22;1.95;;;;;;;23.50;39.25;102102.22;4999874;28;20085;-64
2022/08/11 03:59:22;;;;;;;3.80;2.20;;;;;;;23.49;39.22;102095.06;5002614;28;20084;-64
2022/08/11 04:02:15;;;;;;;3.97;2.25;;;;;;;23.47;39.23;102098.09;4994375;28;20154;-64
2022/08/11 04:05:19;;;;;;;2.70;1.92;;;;;;;23.46;39.26;102101.94;4994286;28;20114;-64
2022/08/11 04:08:49;;;;;;;3.88;2.05;;;;;;;23.43;39.68;102097.00;4990050;28;20051;-64
2022/08/11 04:11:40;;;;;;;4.25;2.00;;;;;;;23.42;39.50;102092.63;5001127;28;20042;-64
2022/08/11 04:17:46;;;;;;;3.72;2.33;;;;;;;23.37;39.59;102093.44;4992926;28;20512;-64
2022/08/11 04:20:51;;;;;;;4.63;2.33;;;;;;;23.35;39.76;102081.94;4989498;28;20119;-64
2022/08/11 04:24:03;;;;;;;4.13;2.33;;;;;;;23.34;39.36;102095.94;5037015;28;20049;-64
2022/08/11 04:27:13;;;;;;;3.45;2.33;;;;;;;23.31;39.67;102086.34;5033401;28;20815;-64
2022/08/11 04:29:58;;;;;;;3.50;1.83;;;;;;;23.22;39.56;102074.28;5045227;28;20076;-64
2022/08/11 04:33:02;;;;;;;4.03;2.30;;;;;;;23.25;39.52;102089.34;5034519;28;20048;-64
2022/08/11 04:35:42;;;;;;;3.72;1.70;;;;;;;23.22;39.63;102090.72;5037308;28;20116;-65
2022/08/11 04:38:38;;;;;;;3.38;1.92;;;;;;;23.21;39.78;102091.00;5036970;28;20052;-65
2022/08/11 04:41:33;;;;;;;4.80;2.17;;;;;;;23.20;39.78;102081.13;5037527;28;20048;-64
2022/08/11 04:44:46;;;;;;;3.92;1.80;;;;;;;23.17;40.01;102092.66;5039365;28;20041;-64
2022/08/11 05:03:22;;;;;;;5.57;2.42;;;;;;;23.04;40.43;102105.00;5041011;28;20084;-65
2022/08/11 05:06:10;;;;;;;4.10;2.13;;;;;;;23.01;40.23;102100.91;5009412;28;20088;-64
2022/08/11 05:09:03;;;;;;;2.75;1.80;;;;;;;23.00;40.37;102103.91;5027233;28;20077;-65
2022/08/11 05:11:45;;;;;;;10.52;2.25;;;;;;;22.98;40.16;102093.22;5041183;28;20072;-67
2022/08/11 05:35:03;;;;;;;5.15;1.90;;;;;;;22.89;40.42;102103.09;5001171;28;21399;-63
2022/08/11 05:37:41;;;;;;;10.43;2.97;;;;;;;22.87;40.84;102104.47;5000617;28;20100;-66
2022/08/11 05:57:24;;;;;;;6.35;2.30;;;;;;;22.94;41.06;102102.28;4988283;28;20077;-65
2022/08/11 06:00:14;;;;;;;10.15;2.28;;;;;;;22.93;40.76;102101.44;5001610;28;20081;-65
2022/08/11 06:02:43;;;;;;;7.35;2.00;;;;;;;22.93;41.04;102115.16;5034391;28;20052;-65
2022/08/11 06:05:12;;;;;;;4.88;2.38;;;;;;;22.93;40.95;102112.41;5027956;28;20046;-65
2022/08/11 06:07:44;;;;;;;3.28;2.13;;;;;;;22.94;40.78;102105.84;5031821;28;20045;-64
2022/08/11 06:10:26;;;;;;;4.47;2.33;;;;;;;22.97;40.99;102119.00;5029761;28;20104;-65
2022/08/11 06:12:55;;;;;;;4.53;2.20;;;;;;;22.96;40.65;102106.38;5034581;28;20050;-65
2022/08/11 06:15:25;;;;;;;3.53;2.00;;;;;;;23.02;40.98;102105.28;5041575;28;20045;-64
2022/08/11 06:17:55;;;;;;;8.75;2.00;;;;;;;23.04;41.17;102111.31;5031497;28;20081;-64
2022/08/11 06:20:24;;;;;;;2.85;1.95;;;;;;;23.05;40.91;102104.72;5029127;28;20080;-65
2022/08/11 06:22:59;;;;;;;3.35;2.40;;;;;;;23.09;41.12;102101.44;5044506;28;20473;-65
2022/08/11 06:25:31;;;;;;;3.45;1.90;;;;;;;23.11;40.99;102104.72;5041120;28;20083;-65
2022/08/11 06:28:00;;;;;;;4.65;2.40;;;;;;;23.12;40.78;102115.44;5029629;28;20064;-65
2022/08/11 06:30:39;;;;;;;5.93;2.90;;;;;;;23.14;41.03;102113.22;5024512;28;20052;-64
2022/08/11 06:33:10;;;;;;;5.07;2.75;;;;;;;23.15;40.88;102114.88;5029332;28;20050;-64
2022/08/11 06:35:48;;;;;;;5.45;2.50;;;;;;;23.17;40.81;102112.69;5037230;28;20072;-64
2022/08/11 06:38:36;;;;;;;6.25;2.10;;;;;;;23.19;40.94;102107.75;5034883;28;20041;-64
2022/08/11 06:44:04;;;;;;;3.58;2.15;;;;;;;23.21;41.20;102112.94;5037413;28;20538;-66
2022/08/11 06:46:36;;;;;;;9.10;2.22;;;;;;;23.22;41.31;102118.16;5044446;28;20053;-63
2022/08/11 06:51:10;;;;;;;5.22;1.98;;;;;;;23.23;41.28;102117.06;5046564;28;20041;-63
2022/08/11 06:51:53;;;;;;;4.22;2.47;;;;;;;;;;5043883;28;20069;-63
2022/08/11 06:54:30;;;;;;;4.75;2.20;;;;;;;23.29;41.22;102117.88;5047204;28;20045;-65
2022/08/11 07:02:49;;;;;;;;;;;;;;;23.37;41.23;102125.56;5043322;28;20172;-67
2022/08/11 07:05:23;;;;;;;4.40;2.40;;;;;;;23.39;41.04;102123.34;5027516;28;20402;-62
2022/08/11 07:17:14;;;;;;;4.88;2.78;;;;;;;23.50;41.00;102116.75;5042686;28;20079;-65
2022/08/11 07:31:14;;;;;;;6.45;2.92;;;;;;;23.62;41.36;102113.75;5043965;28;20107;-63
2022/08/11 07:33:46;;;;;;;5.00;2.72;;;;;;;23.62;41.11;102122.78;5045310;28;20041;-65
2022/08/11 07:36:39;;;;;;;3.95;2.40;;;;;;;23.64;41.10;102117.84;5045138;28;20049;-65
2022/08/11 07:39:10;;;;;;;4.10;2.17;;;;;;;23.66;41.22;102120.31;5045224;28;20041;-63
2022/08/11 07:41:38;;;;;;;4.68;2.40;;;;;;;23.66;40.73;102121.13;5045099;28;20092;-64
2022/08/11 07:44:10;;;;;;;3.60;2.60;;;;;;;23.67;41.13;102121.97;5042644;28;20135;-65
2022/08/11 07:52:26;;;;;;;4.93;2.60;;;;;;;23.69;40.84;102117.00;5045381;28;20053;-64
2022/08/11 07:54:56;;;;;;;5.85;2.63;;;;;;;23.71;41.25;102119.47;5041112;28;20081;-63
2022/08/11 08:20:38;;;;;;;5.13;3.13;;;;;;;23.88;41.71;102112.56;5044657;28;20052;-62
2022/08/11 08:23:08;;;;;;;6.07;2.40;;;;;;;23.82;42.02;102105.44;5037507;28;20253;-62
2022/08/11 08:25:40;;;;;;;5.88;3.30;;;;;;;23.93;42.12;102120.78;5045242;28;20056;-62
2022/08/11 08:28:10;;;;;;;5.10;2.95;;;;;;;23.96;42.39;102116.63;5040957;28;20077;-62
2022/08/11 08:30:46;;;;;;;5.47;2.85;;;;;;;23.98;42.27;102120.75;5044507;28;20073;-62
2022/08/11 08:33:20;;;;;;;3.35;2.53;;;;;;;24.00;42.03;102115.78;5044134;28;20045;-62
2022/08/11 08:35:50;;;;;;;6.35;3.00;;;;;;;24.01;41.99;102122.94;5045310;28;20073;-62
2022/08/11 08:38:23;;;;;;;4.53;2.58;;;;;;;24.04;42.29;102115.25;5043568;28;20054;-62
2022/08/11 08:40:53;;;;;;;3.78;2.80;;;;;;;24.04;42.17;102113.31;5043428;28;20053;-62
2022/08/11 08:43:24;;;;;;;3.88;2.80;;;;;;;24.06;42.43;102115.78;5045156;28;20110;-62
2022/08/11 08:45:55;;;;;;;5.72;2.90;;;;;;;24.07;42.34;102112.75;5029841;28;20050;-62
2022/08/11 08:48:27;;;;;;;4.03;2.80;;;;;;;24.10;41.89;102106.69;5035409;28;20049;-62
2022/08/11 08:53:51;;;;;;;4.50;2.95;;;;;;;24.12;42.12;102115.47;5038204;28;20050;-62
2022/08/11 08:56:28;;;;;;;6.53;3.17;;;;;;;24.14;42.39;102105.03;5045417;28;20050;-61
2022/08/11 08:58:59;;;;;;;10.82;2.63;;;;;;;24.11;42.12;102097.34;5044073;28;20049;-63
2022/08/11 09:01:29;;;;;;;6.50;3.38;;;;;;;24.20;42.86;102109.38;5045625;28;20522;-61
2022/08/11 09:04:00;;;;;;;4.63;2.70;;;;;;;24.21;42.38;102111.03;5042038;28;20045;-62
2022/08/11 09:06:39;;;;;;;5.55;2.63;;;;;;;24.23;41.98;102106.06;5032212;28;20532;-61
2022/08/11 09:09:08;;;;;;;5.53;2.83;;;;;;;24.24;41.95;102107.72;5044170;28;20056;-61
2022/08/11 09:17:18;;;;;;;4.55;3.00;;;;;;;24.29;42.08;102112.38;5034510;28;20045;-61
2022/08/11 09:19:48;;;;;;;4.00;2.45;;;;;;;24.32;42.20;102100.81;5041066;28;20540;-61
2022/08/11 09:28:30;;;;;;;4.03;2.90;;;;;;;24.42;41.53;102098.00;5001996;28;20085;-61
2022/08/11 09:31:01;;;;;;;6.78;2.92;;;;;;;24.46;42.12;102096.31;5000993;28;20101;-61
2022/08/11 09:33:31;;;;;;;10.48;3.00;;;;;;;24.50;41.61;102091.91;4999965;28;20155;-61
2022/08/11 09:40:27;;;;;;;6.10;2.50;;;;;;;24.54;41.69;102086.66;5001504;28;20065;-61
2022/08/11 09:41:39;;;;;;;4.85;2.92;;;;;;;24.58;41.56;102079.47;4999443;28;20046;-61
2022/08/11 09:47:22;;;;;;;4.25;2.90;;;;;;;24.70;42.23;102079.13;5000549;28;20057;-62
2022/08/11 09:49:53;;;;;;;6.97;2.63;;;;;;;24.73;41.56;102086.78;4999189;28;20118;-62
2022/08/11 09:52:24;;;;;;;8.82;2.85;;;;;;;24.75;42.16;102088.13;4998853;28;20066;-63
2022/08/11 09:54:54;;;;;;;6.88;2.70;;;;;;;24.77;41.46;102072.19;5001597;28;20082;-61
2022/08/11 10:00:10;;;;;;;5.57;2.90;;;;;;;24.86;41.33;102077.88;5042860;28;20115;-61
2022/08/11 10:02:47;;;;;;;4.13;2.75;;;;;;;24.91;41.21;102077.84;5035039;28;20049;-61
2022/08/11 10:08:05;;;;;;;5.68;2.70;;;;;;;25.05;41.66;102078.03;5025041;28;20052;-61
2022/08/11 10:10:37;;;;;;;4.35;2.40;;;;;;;25.09;41.28;102060.66;5028648;28;20056;-61
2022/08/11 10:13:09;;;;;;;4.65;2.45;;;;;;;25.11;41.44;102074.94;5035592;28;20079;-61
2022/08/11 10:15:59;;;;;;;7.57;3.20;;;;;;;25.14;41.18;102068.84;5031091;28;20113;-61
2022/08/11 10:18:51;;;;;;;5.43;2.60;;;;;;;25.17;40.80;102062.75;5025066;28;20473;-61
2022/08/11 10:21:27;;;;;;;3.08;2.42;;;;;;;25.21;40.68;102063.00;5036550;28;20049;-61
2022/08/11 10:26:53;;;;;;;6.60;2.50;;;;;;;25.26;40.78;102058.28;5042959;28;20045;-61
2022/08/11 10:35:26;;;;;;;4.18;2.30;;;;;;;25.48;40.64;102052.25;5034235;28;20136;-61
2022/08/11 10:37:55;;;;;;;5.80;2.20;;;;;;;25.52;40.62;102049.72;5026698;28;20057;-61
2022/08/11 10:43:01;;;;;;;6.25;3.10;;;;;;;25.57;40.36;102042.22;5036784;28;20099;-62
2022/08/11 10:43:34;;;;;;;7.30;2.47;;;;;;;25.65;39.97;102040.78;5040388;28;20092;-61
2022/08/11 10:49:09;;;;;;;;;;;;;;;25.67;39.95;102040.50;5026226;28;20567;-61
2022/08/11 11:00:01;;;;;;;3.03;2.20;;;;;;;25.82;39.22;102027.34;5041968;28;20088;-61
2022/08/11 11:02:29;;;;;;;4.20;2.85;;;;;;;25.90;40.14;102026.69;5040498;28;20058;-62
2022/08/11 11:05:01;;;;;;;3.15;2.47;;;;;;;26.01;40.18;102024.59;5039064;28;20049;-62
2022/08/11 11:07:38;;;;;;;6.57;2.63;;;;;;;26.10;39.61;102025.56;5043543;28;20092;-61
2022/08/11 11:10:10;;;;;;;4.10;2.60;;;;;;;26.18;39.06;102018.56;5039876;28;20049;-62
2022/08/11 11:18:22;;;;;;;3.53;2.17;;;;;;;26.19;39.14;102011.91;5028192;28;20076;-61
2022/08/11 11:20:56;;;;;;;3.35;2.25;;;;;;;26.24;39.87;102020.94;5036710;28;20081;-61
2022/08/11 11:23:28;;;;;;;3.63;2.50;;;;;;;26.34;39.72;102022.75;5034851;28;20109;-61
2022/08/11 11:26:23;;;;;;;3.35;2.53;;;;;;;26.43;39.62;102022.88;5043416;28;20049;-62
2022/08/11 11:29:19;;;;;;;3.85;2.72;;;;;;;26.52;39.55;102019.13;5040763;28;20061;-62
2022/08/11 11:31:57;;;;;;;3.63;2.55;;;;;;;26.61;38.84;102022.03;5044737;28;20160;-62
2022/08/11 11:34:58;;;;;;;4.03;2.78;;;;;;;26.66;38.67;102015.63;5041402;28;20072;-62
2022/08/11 11:37:30;;;;;;;4.93;3.30;;;;;;;26.81;39.49;102015.34;5045341;28;20054;-62
2022/08/11 11:39:59;;;;;;;4.65;2.75;;;;;;;26.86;39.25;102010.56;5045945;28;20053;-62
2022/08/11 11:42:28;;;;;;;4.07;2.97;;;;;;;26.98;38.78;102012.84;5047422;28;20053;-62
2022/08/11 11:44:58;;;;;;;5.60;2.50;;;;;;;27.05;38.82;102005.00;5043044;28;20063;-62
2022/08/11 11:47:29;;;;;;;5.10;2.22;;;;;;;27.11;38.46;102006.53;5047024;28;20046;-62
2022/08/11 11:49:57;;;;;;;4.75;2.50;;;;;;;27.14;38.91;102002.34;5036904;28;20065;-62
2022/08/11 11:52:26;;;;;;;6.10;2.15;;;;;;;27.17;38.85;101997.03;5039918;28;20057;-62
2022/08/11 11:54:57;;;;;;;5.30;2.40;;;;;;;27.21;38.45;101994.47;5028753;28;20084;-62
2022/08/11 12:03:15;;;;;;;3.58;2.17;;;;;;;27.33;37.28;101989.28;5036238;28;20053;-60
2022/08/11 12:05:44;;;;;;;4.43;2.50;;;;;;;27.31;38.37;101988.75;5042992;28;20041;-60
2022/08/11 12:08:15;;;;;;;5.10;2.58;;;;;;;27.36;38.51;101993.34;5045789;28;20068;-60
2022/08/11 12:10:45;;;;;;;4.78;2.50;;;;;;;27.40;38.29;101986.91;5044805;28;20084;-61
2022/08/11 12:16:02;;;;;;;3.42;2.17;;;;;;;27.54;37.64;101975.84;5031869;28;20173;-60
2022/08/11 12:18:53;;;;;;;4.55;2.60;;;;;;;27.65;37.83;101982.00;5027179;28;20121;-61
2022/08/11 12:21:23;;;;;;;3.58;2.30;;;;;;;27.73;37.80;101982.09;5043461;28;20099;-61
2022/08/11 12:29:44;;;;;;;3.07;2.50;;;;;;;27.82;37.73;101966.38;5035170;28;20056;-61
2022/08/11 12:32:13;;;;;;;3.38;2.15;;;;;;;27.81;37.07;101964.75;5054461;28;20061;-62
2022/08/11 12:34:41;;;;;;;4.28;2.50;;;;;;;27.80;36.20;101954.81;5055520;28;20081;-63
2022/08/11 12:37:12;;;;;;;3.95;2.20;;;;;;;27.83;37.87;101954.19;4689529;28;10000685;-63
2022/08/11 12:45:57;;;;;;;4.13;2.28;;;;;;;28.03;37.44;101949.31;5041897;28;20543;-63
2022/08/11 12:54:46;;;;;;;4.35;2.50;;;;;;;28.08;36.65;101933.44;5034883;28;20056;-62
2022/08/11 13:05:40;;;;;;;5.13;2.20;;;;;;;28.28;35.87;101937.69;5037155;28;20069;-62
2022/08/11 13:08:14;;;;;;;3.75;2.35;;;;;;;28.29;35.08;101922.72;5047019;28;20080;-62
2022/08/11 13:13:29;;;;;;;;;;;;;;;28.31;35.79;101922.41;5042057;28;20050;-62
2022/08/11 13:16:19;;;;;;;4.22;2.20;;;;;;;28.34;36.12;101916.25;5036331;28;19931;-62
2022/08/11 13:18:49;;;;;;;2.88;2.10;;;;;;;28.35;36.09;101915.94;5047288;28;20053;-62
2022/08/11 13:21:18;;;;;;;3.40;2.45;;;;;;;28.37;35.74;101910.91;5042234;28;20069;-62
2022/08/11 13:23:49;;;;;;;5.95;2.60;;;;;;;28.42;36.63;101902.47;5044890;28;20615;-62
2022/08/11 13:26:35;;;;;;;6.18;2.38;;;;;;;28.43;34.90;101904.09;5042384;28;20330;-62
2022/08/11 13:29:16;;;;;;;4.07;2.15;;;;;;;28.45;34.67;101904.59;5042609;28;20068;-62
2022/08/11 13:31:45;;;;;;;3.88;2.00;;;;;;;28.48;35.04;101903.16;5037419;28;20114;-62
2022/08/11 13:34:14;;;;;;;2.80;2.00;;;;;;;28.52;35.14;101904.16;5050825;28;20069;-62
2022/08/11 13:36:45;;;;;;;4.70;2.65;;;;;;;28.56;36.26;101896.84;5038880;28;20046;-62
2022/08/11 13:39:13;;;;;;;4.80;2.25;;;;;;;28.58;35.38;101905.66;5042735;28;20049;-62
2022/08/11 13:41:45;;;;;;;3.05;2.38;;;;;;;28.62;35.15;101895.56;5042554;28;20053;-63
2022/08/11 13:44:16;;;;;;;4.28;2.30;;;;;;;28.66;35.69;101893.00;5049957;28;20089;-62
2022/08/11 13:46:52;;;;;;;6.22;2.40;;;;;;;28.67;35.50;101894.63;5041362;28;20050;-62
2022/08/11 13:49:21;;;;;;;7.22;2.45;;;;;;;28.65;34.60;101875.56;5038715;28;20079;-61
2022/08/11 13:51:52;;;;;;;5.15;2.42;;;;;;;28.70;34.07;101883.72;5039596;28;20071;-61
2022/08/11 13:54:22;;;;;;;2.70;2.00;;;;;;;28.72;34.32;101883.41;5044707;28;20083;-61
2022/08/11 13:56:55;;;;;;;3.67;2.17;;;;;;;28.76;35.01;101889.94;5044828;28;20088;-61
2022/08/11 13:59:24;;;;;;;4.00;2.30;;;;;;;28.77;33.88;101884.09;5035408;28;20084;-61
2022/08/11 14:02:03;;;;;;;2.88;1.92;;;;;;;28.81;34.84;101878.72;5037894;28;20652;-61
2022/08/11 14:04:55;;;;;;;4.38;2.53;;;;;;;28.83;34.57;101874.53;5041518;28;20054;-61
2022/08/11 14:07:33;;;;;;;3.83;2.22;;;;;;;28.89;34.69;101871.63;5041968;28;20079;-62
2022/08/11 14:10:02;;;;;;;3.75;2.40;;;;;;;28.91;34.83;101870.16;5047693;28;20123;-61
2022/08/11 14:15:23;;;;;;;3.92;2.22;;;;;;;29.03;35.77;101875.09;5037780;28;20080;-62
2022/08/11 14:17:55;;;;;;;3.45;2.28;;;;;;;29.08;36.17;101874.94;5039582;28;20095;-62
2022/08/11 14:22:05;;;;;;;3.08;2.20;;;;;;;29.11;35.90;101866.78;5043264;28;20571;-62
2022/08/11 14:23:14;;;;;;;2.50;1.90;;;;;;;29.12;34.41;101864.84;5042725;28;20466;-61
2022/08/11 14:26:22;;;;;;;6.20;2.58;;;;;;;29.17;35.31;101861.91;5045712;28;20053;-62
2022/08/11 14:28:33;;;;;;;3.40;1.80;;;;;;;29.18;34.04;101862.75;5057470;28;20075;-62
2022/08/11 14:31:12;;;;;;;6.53;2.25;;;;;;;29.21;35.21;101859.31;5036049;28;20045;-62
2022/08/11 14:33:41;;;;;;;4.35;2.35;;;;;;;29.28;32.20;101863.25;5034494;28;20046;-62
2022/08/11 14:36:33;;;;;;;7.10;2.20;;;;;;;29.35;33.12;101857.22;5041553;28;20087;-62
2022/08/11 14:39:10;;;;;;;5.47;2.22;;;;;;;29.36;33.48;101850.53;5036892;28;20400;-63
2022/08/11 14:47:03;;;;;;;2.78;2.00;;;;;;;29.39;34.23;101855.44;5040360;28;20068;-62
2022/08/11 14:48:17;;;;;;;2.83;1.90;;;;;;;29.37;32.02;101849.41;5034278;28;20050;-62
2022/08/11 14:50:46;;;;;;;10.93;2.47;;;;;;;29.35;31.95;101846.97;5032765;28;20061;-62
2022/08/11 14:53:15;;;;;;;4.07;2.40;;;;;;;29.33;32.05;101851.19;5043360;28;20060;-62
2022/08/11 14:58:33;;;;;;;3.58;2.13;;;;;;;29.31;32.98;101845.97;5034696;28;20053;-62
2022/08/11 15:03:05;;;;;;;4.20;2.50;;;;;;;29.32;33.44;101838.50;5030823;28;20121;-62
2022/08/11 15:03:51;;;;;;;3.15;1.83;;;;;;;29.39;32.51;101849.91;5029282;28;20084;-62
2022/08/11 15:06:39;;;;;;;3.65;2.28;;;;;;;29.35;31.90;101832.28;5042465;28;20508;-62
2022/08/11 15:09:07;;;;;;;3.95;2.28;;;;;;;29.31;31.61;101837.66;5044289;28;20589;-62
2022/08/11 15:17:10;;;;;;;4.65;2.25;;;;;;;29.35;32.70;101827.56;5036406;28;20065;-65
2022/08/11 15:24:18;;;;;;;3.65;2.17;;;;;;;29.39;32.68;101824.97;4688201;28;10000431;-60
2022/08/11 15:25:15;;;;;;;5.03;2.30;;;;;;;29.45;33.10;101818.97;5040427;28;20117;-61
2022/08/11 15:38:57;;;;;;;4.13;2.45;;;;;;;29.41;31.84;101808.84;5042345;28;20081;-65
2022/08/11 15:47:37;;;;;;;10.23;2.63;;;;;;;29.46;32.18;101803.97;5025725;28;20088;-64
2022/08/11 15:50:13;;;;;;;4.40;2.78;;;;;;;29.45;32.05;101801.53;5037793;28;20064;-65
2022/08/11 15:52:48;;;;;;;6.40;2.60;;;;;;;29.44;31.94;101797.13;5033340;28;20041;-63
2022/08/11 15:55:17;;;;;;;3.30;2.25;;;;;;;29.40;31.21;101801.66;5044720;28;20076;-63
2022/08/11 16:06:39;;;;;;;3.78;2.30;;;;;;;29.33;30.38;101802.16;5039272;28;20536;-65
2022/08/11 16:09:15;;;;;;;5.45;2.10;;;;;;;29.32;30.50;101805.25;5044104;28;20080;-65
2022/08/11 16:11:47;;;;;;;4.90;2.30;;;;;;;29.29;29.59;101798.41;5041849;28;20112;-65
2022/08/11 16:17:06;;;;;;;4.90;2.10;;;;;;;29.25;29.94;101791.09;5037412;28;20045;-65
2022/08/11 16:19:37;;;;;;;2.67;2.00;;;;;;;29.26;30.33;101787.16;5045072;28;20053;-63
2022/08/11 16:22:08;;;;;;;3.50;2.28;;;;;;;29.27;30.71;101784.06;5041890;28;20084;-65
2022/08/11 16:24:42;;;;;;;3.47;2.22;;;;;;;29.27;30.27;101778.53;4688440;28;10000174;-63
2022/08/11 16:27:32;;;;;;;6.35;2.03;;;;;;;29.27;30.23;101775.78;5042521;28;20064;-64
2022/08/11 16:30:03;;;;;;;4.32;2.10;;;;;;;29.26;30.28;101778.88;5042354;28;20067;-64
2022/08/11 16:32:34;;;;;;;2.83;1.88;;;;;;;29.28;30.28;101771.84;5039719;28;20057;-62
2022/08/11 16:40:39;;;;;;;3.58;2.22;;;;;;;29.25;30.17;101766.97;5038795;28;20507;-65
2022/08/11 16:48:47;;;;;;;3.13;2.00;;;;;;;29.23;30.58;101763.72;5038384;28;20085;-66
2022/08/11 16:51:16;;;;;;;3.13;1.80;;;;;;;29.25;30.96;101764.19;5043992;28;20091;-66
2022/08/11 16:53:44;;;;;;;3.85;1.90;;;;;;;29.26;31.21;101757.53;5041378;28;20069;-66
2022/08/11 16:56:34;;;;;;;4.70;1.92;;;;;;;29.27;31.59;101764.69;5037969;28;20058;-66
2022/08/11 16:59:13;;;;;;;4.32;2.05;;;;;;;29.25;31.40;101758.66;5045838;28;20073;-67
2022/08/11 17:01:47;;;;;;;6.45;2.35;;;;;;;29.25;31.00;101760.63;5042366;28;20061;-67
2022/08/11 17:13:27;;;;;;;4.88;2.20;;;;;;;29.17;31.26;101745.63;4980886;28;20067;-66
2022/08/11 17:16:10;;;;;;;5.40;2.30;;;;;;;29.17;31.20;101751.16;4982160;28;20047;-67
2022/08/11 17:18:51;;;;;;;2.45;1.85;;;;;;;29.15;30.59;101748.72;4980061;28;20039;-67